Time;durP1;ratioP1;P1;durP2;ratioP2;P2;SDS_P1;SDS_P2;PMS_P1;PMS_P2;Temp;Humidity;BMP_temperature;BMP_pressure;BME280_temperature;BME280_humidity;BME280_pressure;Samples;Min_cycle;Max_cycle;Signal;HPM_P1;HPM_P2
2022/06/29 00:02:54;;;;;;;0.65;0.10;;;21.50;60.40;;;;;;5088884;28;20389;-70
2022/06/29 00:05:21;;;;;;;1.48;0.20;;;21.50;60.30;;;;;;5087794;28;20062;-70
2022/06/29 00:07:48;;;;;;;0.73;0.10;;;21.50;60.30;;;;;;5088273;28;20051;-69
2022/06/29 00:10:15;;;;;;;0.38;0.10;;;21.50;60.30;;;;;;5088061;28;20048;-70
2022/06/29 00:12:42;;;;;;;0.30;0.10;;;21.50;60.30;;;;;;5088172;28;20372;-70
2022/06/29 00:15:09;;;;;;;1.05;0.10;;;21.50;60.30;;;;;;5088227;28;20048;-69
2022/06/29 00:17:35;;;;;;;0.57;0.15;;;21.50;60.30;;;;;;5087892;28;20231;-69
2022/06/29 00:20:03;;;;;;;1.15;0.10;;;21.40;60.20;;;;;;5089050;28;20201;-69
2022/06/29 00:22:29;;;;;;;0.43;0.10;;;21.50;60.30;;;;;;5087845;28;20127;-70
2022/06/29 00:24:55;;;;;;;0.68;0.10;;;21.40;60.20;;;;;;5087638;28;20470;-70
2022/06/29 00:27:21;;;;;;;0.40;0.10;;;21.40;60.10;;;;;;5087801;28;20036;-70
2022/06/29 00:29:47;;;;;;;0.57;0.10;;;21.40;60.10;;;;;;5087588;28;20395;-70
2022/06/29 00:32:14;;;;;;;0.75;0.17;;;21.50;60.20;;;;;;5087679;28;20051;-70
2022/06/29 00:34:39;;;;;;;0.30;0.03;;;21.40;60.10;;;;;;5088813;28;20067;-70
2022/06/29 00:37:05;;;;;;;1.95;0.10;;;21.40;60.10;;;;;;5087437;28;20040;-69
2022/06/29 00:39:32;;;;;;;0.75;0.10;;;21.40;60.10;;;;;;5088995;28;20028;-70
2022/06/29 00:41:58;;;;;;;0.60;0.10;;;21.40;60.20;;;;;;5088802;28;20103;-73
2022/06/29 00:44:24;;;;;;;0.40;0.10;;;21.40;60.10;;;;;;5087309;28;20039;-70
2022/06/29 00:49:31;;;;;;;0.20;0.10;;;21.30;60.10;;;;;;5130199;27;20455;-70
2022/06/29 00:52:17;;;;;;;1.45;0.15;;;21.30;60.10;;;;;;5129228;28;20368;-70
2022/06/29 00:57:26;;;;;;;0.50;0.10;;;21.30;60.10;;;;;;5130213;27;20353;-69
2022/06/29 00:59:54;;;;;;;0.47;0.10;;;21.30;60.20;;;;;;5130440;27;20058;-70
2022/06/29 01:02:23;;;;;;;0.30;0.10;;;21.30;60.20;;;;;;5128847;28;20505;-69
2022/06/29 01:04:50;;;;;;;0.50;0.10;;;21.30;60.20;;;;;;5128784;28;20088;-70
2022/06/29 01:07:18;;;;;;;0.20;0.10;;;21.30;60.20;;;;;;5129154;28;20047;-72
2022/06/29 01:09:45;;;;;;;0.32;0.20;;;21.30;60.20;;;;;;5128708;28;20042;-68
2022/06/29 01:12:11;;;;;;;0.77;0.10;;;21.30;60.20;;;;;;5128978;28;20491;-68
2022/06/29 01:14:39;;;;;;;1.00;0.20;;;21.30;60.30;;;;;;5129097;27;20086;-69
2022/06/29 01:17:05;;;;;;;0.60;0.10;;;21.30;60.30;;;;;;5128602;28;20499;-69
2022/06/29 01:19:30;;;;;;;0.30;0.10;;;21.20;60.20;;;;;;5128838;27;20085;-69
2022/06/29 01:22:04;;;;;;;1.20;0.20;;;21.20;60.30;;;;;;5128412;28;20035;-69
2022/06/29 01:24:32;;;;;;;0.30;0.10;;;21.20;60.30;;;;;;5111655;28;20047;-69
2022/06/29 01:26:58;;;;;;;1.10;0.28;;;21.20;60.30;;;;;;5128520;28;20043;-70
2022/06/29 01:29:23;;;;;;;0.30;0.10;;;21.20;60.40;;;;;;5129643;28;20077;-69
2022/06/29 01:31:54;;;;;;;0.63;0.20;;;21.20;60.30;;;;;;5145740;27;20435;-69
2022/06/29 01:34:20;;;;;;;1.42;0.20;;;21.20;60.30;;;;;;5128427;28;20071;-69
2022/06/29 01:36:45;;;;;;;0.47;0.10;;;21.20;60.30;;;;;;5128125;28;20081;-70
2022/06/29 01:39:11;;;;;;;0.28;0.10;;;21.20;60.30;;;;;;5128467;28;20048;-69
2022/06/29 01:41:36;;;;;;;0.57;0.10;;;21.20;61.10;;;;;;5128257;28;20046;-69
2022/06/29 01:44:02;;;;;;;0.73;0.20;;;21.20;60.40;;;;;;5128324;28;20387;-69
2022/06/29 01:46:30;;;;;;;0.85;0.17;;;21.10;60.30;;;;;;5127925;28;20122;-70
2022/06/29 01:48:56;;;;;;;0.47;0.20;;;21.10;60.30;;;;;;5129236;28;20165;-69
2022/06/29 01:51:22;;;;;;;0.63;0.10;;;21.10;60.30;;;;;;5129274;28;20046;-70
2022/06/29 01:53:47;;;;;;;0.55;0.10;;;21.10;60.30;;;;;;5127934;28;20397;-70
2022/06/29 01:56:16;;;;;;;1.13;0.17;;;21.10;60.30;;;;;;5128753;28;20047;-69
2022/06/29 01:58:42;;;;;;;0.43;0.10;;;21.10;60.30;;;;;;5127800;28;20047;-69
2022/06/29 02:01:07;;;;;;;0.68;0.15;;;21.10;60.30;;;;;;5129008;28;20053;-69
2022/06/29 02:03:33;;;;;;;0.43;0.10;;;21.00;60.30;;;;;;5128909;27;20114;-70
2022/06/29 02:05:59;;;;;;;0.50;0.20;;;21.10;60.30;;;;;;5127745;28;20118;-70
2022/06/29 02:08:24;;;;;;;0.43;0.17;;;21.00;60.30;;;;;;5116317;28;20075;-69
2022/06/29 02:10:50;;;;;;;0.70;0.10;;;21.00;60.30;;;;;;5114150;28;20497;-70
2022/06/29 02:13:16;;;;;;;0.60;0.10;;;21.00;60.30;;;;;;5114162;28;20083;-70
2022/06/29 02:15:41;;;;;;;0.63;0.10;;;21.00;60.30;;;;;;5113773;28;20080;-69
2022/06/29 02:18:07;;;;;;;0.50;0.20;;;21.00;60.30;;;;;;5113862;28;20127;-69
2022/06/29 02:20:32;;;;;;;0.70;0.10;;;21.00;60.30;;;;;;5114171;28;20073;-68
2022/06/29 02:23:01;;;;;;;1.48;0.35;;;21.00;60.30;;;;;;5115345;28;20039;-70
2022/06/29 02:25:27;;;;;;;0.98;0.10;;;21.00;60.30;;;;;;5114168;28;20035;-69
2022/06/29 02:27:52;;;;;;;0.63;0.10;;;21.00;60.30;;;;;;5113786;28;20055;-70
2022/06/29 02:30:18;;;;;;;0.35;0.10;;;21.00;60.30;;;;;;5114818;28;20135;-68
2022/06/29 02:35:31;;;;;;;0.70;0.15;;;21.00;60.30;;;;;;5113443;28;20086;-69
2022/06/29 02:37:57;;;;;;;1.48;0.20;;;20.90;60.30;;;;;;5115090;28;20039;-69
2022/06/29 02:40:23;;;;;;;0.50;0.28;;;20.90;60.30;;;;;;5113466;28;20039;-69
2022/06/29 02:42:48;;;;;;;1.00;0.10;;;20.90;60.30;;;;;;5114290;28;20028;-70
2022/06/29 02:45:14;;;;;;;0.43;0.10;;;20.90;60.30;;;;;;5114236;28;20038;-69
2022/06/29 02:47:39;;;;;;;0.52;0.10;;;20.90;60.30;;;;;;5113561;28;20055;-69
2022/06/29 02:50:05;;;;;;;0.68;0.10;;;20.90;60.30;;;;;;5113196;28;20518;-69
2022/06/29 02:52:31;;;;;;;0.90;0.20;;;20.90;60.30;;;;;;5114510;28;20065;-68
2022/06/29 02:54:56;;;;;;;0.60;0.20;;;20.90;60.30;;;;;;5113977;28;20031;-68
2022/06/29 02:57:24;;;;;;;1.55;0.30;;;20.80;60.20;;;;;;5113035;28;20500;-67
2022/06/29 02:59:53;;;;;;;2.15;0.30;;;20.90;60.30;;;;;;5112910;28;20035;-67
2022/06/29 03:02:21;;;;;;;0.82;0.10;;;20.90;60.40;;;;;;5113264;28;20036;-69
2022/06/29 03:04:47;;;;;;;0.45;0.20;;;20.90;60.30;;;;;;5112844;28;20063;-68
2022/06/29 03:07:12;;;;;;;0.50;0.20;;;20.90;60.30;;;;;;5112897;28;20258;-70
2022/06/29 03:09:38;;;;;;;2.03;0.20;;;20.90;60.30;;;;;;5112669;28;20086;-69
2022/06/29 03:12:04;;;;;;;0.25;0.10;;;20.90;60.30;;;;;;5112819;28;20054;-69
2022/06/29 03:14:29;;;;;;;0.45;0.15;;;20.80;60.30;;;;;;5112812;28;20093;-68
2022/06/29 03:16:57;;;;;;;0.82;0.20;;;20.90;60.30;;;;;;5112642;28;20070;-69
2022/06/29 03:19:22;;;;;;;1.08;0.10;;;20.80;60.30;;;;;;5111547;28;20080;-70
2022/06/29 03:21:51;;;;;;;0.98;0.10;;;20.80;60.30;;;;;;5112766;28;20044;-69
2022/06/29 03:24:17;;;;;;;0.73;0.20;;;20.80;60.30;;;;;;5112480;28;20096;-69
2022/06/29 03:26:43;;;;;;;0.40;0.10;;;20.80;60.30;;;;;;5112740;28;20039;-69
2022/06/29 03:29:08;;;;;;;0.30;0.10;;;20.80;60.30;;;;;;5112323;28;20035;-68
2022/06/29 03:31:34;;;;;;;0.43;0.10;;;20.80;60.30;;;;;;5112606;28;20040;-69
2022/06/29 03:33:59;;;;;;;1.52;0.20;;;20.80;60.40;;;;;;5112413;28;20510;-69
2022/06/29 03:36:25;;;;;;;0.30;0.28;;;20.80;60.40;;;;;;5112200;28;20133;-69
2022/06/29 03:38:51;;;;;;;0.63;0.50;;;20.80;60.40;;;;;;5112483;28;20093;-69
2022/06/29 03:41:16;;;;;;;0.60;0.20;;;20.80;60.40;;;;;;5112056;28;20467;-69
2022/06/29 03:43:42;;;;;;;0.38;0.20;;;20.80;60.40;;;;;;5112026;28;20042;-69
2022/06/29 03:46:07;;;;;;;0.55;0.20;;;20.80;60.30;;;;;;5112020;28;20035;-69
2022/06/29 03:48:33;;;;;;;0.35;0.10;;;20.80;60.40;;;;;;5112242;28;20093;-69
2022/06/29 03:50:59;;;;;;;0.50;0.10;;;20.80;60.40;;;;;;5111954;28;20040;-69
2022/06/29 03:53:24;;;;;;;0.65;0.10;;;20.80;60.40;;;;;;5112225;28;20043;-69
2022/06/29 03:55:50;;;;;;;0.57;0.20;;;20.70;60.30;;;;;;5111446;28;20399;-68
2022/06/29 03:58:15;;;;;;;0.30;0.20;;;20.80;60.40;;;;;;5111823;28;20067;-69
2022/06/29 04:00:41;;;;;;;0.75;0.30;;;20.80;60.40;;;;;;5094805;28;20070;-68
2022/06/29 04:03:07;;;;;;;2.05;0.30;;;20.70;60.30;;;;;;5111901;28;20036;-69
2022/06/29 04:05:32;;;;;;;0.57;0.20;;;20.70;60.30;;;;;;5111901;28;20056;-69
2022/06/29 04:07:58;;;;;;;0.47;0.10;;;20.70;60.30;;;;;;5111899;28;20040;-68
2022/06/29 04:10:23;;;;;;;1.02;0.30;;;20.80;60.40;;;;;;5111664;28;20398;-69
2022/06/29 04:12:49;;;;;;;0.60;0.10;;;20.70;60.30;;;;;;5111454;28;20036;-69
2022/06/29 04:15:15;;;;;;;0.65;0.20;;;20.70;60.30;;;;;;5111431;28;20040;-69
2022/06/29 04:17:46;;;;;;;1.58;0.20;;;20.70;60.30;;;;;;5111604;28;20035;-69
2022/06/29 04:21:05;;;;;;;1.00;0.22;;;20.70;60.30;;;;;;5111715;28;20112;-69
2022/06/29 04:23:02;;;;;;;0.73;0.20;;;20.70;60.20;;;;;;5111419;28;20043;-69
2022/06/29 04:25:28;;;;;;;1.02;0.20;;;20.70;60.40;;;;;;5111341;28;20040;-68
2022/06/29 04:27:54;;;;;;;0.55;0.20;;;20.70;60.30;;;;;;5111291;28;20128;-69
2022/06/29 04:30:20;;;;;;;0.90;0.60;;;20.70;60.30;;;;;;5111350;28;20086;-70
2022/06/29 04:32:45;;;;;;;1.23;0.30;;;20.70;60.20;;;;;;5111241;28;20403;-69
2022/06/29 04:35:11;;;;;;;0.75;0.25;;;20.70;60.20;;;;;;5111180;28;20046;-67
2022/06/29 04:37:37;;;;;;;1.10;0.20;;;20.70;60.20;;;;;;5111123;28;20104;-68
2022/06/29 04:40:03;;;;;;;0.75;0.10;;;20.70;60.20;;;;;;5111128;28;20043;-68
2022/06/29 04:42:29;;;;;;;1.30;0.20;;;20.70;60.20;;;;;;5094395;28;20119;-69
2022/06/29 04:44:55;;;;;;;0.52;0.20;;;20.70;60.20;;;;;;5111107;28;20505;-69
2022/06/29 04:47:21;;;;;;;2.55;0.30;;;20.70;60.20;;;;;;5111251;28;20051;-69
2022/06/29 04:49:47;;;;;;;0.40;0.25;;;20.70;60.20;;;;;;5111280;28;20118;-69
2022/06/29 04:52:12;;;;;;;0.88;0.20;;;20.60;60.20;;;;;;5111301;28;20505;-69
2022/06/29 04:54:41;;;;;;;0.77;0.20;;;20.70;60.20;;;;;;5111021;28;20096;-69
2022/06/29 04:57:08;;;;;;;0.90;0.20;;;20.70;60.20;;;;;;5110668;28;20498;-69
2022/06/29 04:59:34;;;;;;;0.52;0.20;;;20.70;60.20;;;;;;5111010;28;20035;-69
2022/06/29 05:02:00;;;;;;;0.65;0.20;;;20.60;60.20;;;;;;5110890;28;20376;-68
2022/06/29 05:04:25;;;;;;;0.98;0.50;;;20.70;60.20;;;;;;5110988;28;20194;-69
2022/06/29 05:06:51;;;;;;;1.25;0.30;;;20.60;60.20;;;;;;5110898;28;20123;-68
2022/06/29 05:09:16;;;;;;;0.60;0.38;;;20.60;60.20;;;;;;5110766;28;20115;-68
2022/06/29 05:11:42;;;;;;;1.38;0.20;;;20.70;60.20;;;;;;5111153;28;20427;-69
2022/06/29 05:14:10;;;;;;;0.98;0.25;;;20.60;60.20;;;;;;5110743;28;20177;-68
2022/06/29 05:16:36;;;;;;;0.70;0.20;;;20.60;60.20;;;;;;5112043;28;20114;-69
2022/06/29 05:19:01;;;;;;;1.02;0.30;;;20.60;60.20;;;;;;5110845;28;20427;-69
2022/06/29 05:21:27;;;;;;;0.60;0.50;;;20.60;60.20;;;;;;5110876;28;20044;-68
2022/06/29 05:23:53;;;;;;;1.40;0.30;;;20.60;60.20;;;;;;5111233;28;20075;-68
2022/06/29 05:26:19;;;;;;;0.90;0.20;;;20.60;60.20;;;;;;5112229;28;20036;-69
2022/06/29 05:28:44;;;;;;;0.55;0.30;;;20.60;60.10;;;;;;5111279;28;20469;-68
2022/06/29 05:31:10;;;;;;;1.23;0.30;;;20.60;60.10;;;;;;5110708;28;20120;-69
2022/06/29 05:33:36;;;;;;;4.45;0.65;;;20.70;60.10;;;;;;5110924;28;20046;-68
2022/06/29 05:36:04;;;;;;;3.28;0.30;;;20.70;60.10;;;;;;5108867;28;20115;-67
2022/06/29 05:38:31;;;;;;;1.70;0.20;;;20.70;60.10;;;;;;5110410;28;20455;-67
2022/06/29 05:41:00;;;;;;;1.35;0.38;;;20.70;59.90;;;;;;5111239;28;20427;-67
2022/06/29 05:43:30;;;;;;;1.63;0.20;;;20.70;59.80;;;;;;5110503;28;20526;-67
2022/06/29 05:45:56;;;;;;;2.40;0.43;;;20.70;59.80;;;;;;5111231;28;20047;-67
2022/06/29 05:48:22;;;;;;;0.93;0.40;;;20.70;59.70;;;;;;5110987;28;20057;-67
2022/06/29 05:50:51;;;;;;;0.70;0.32;;;20.80;59.60;;;;;;5113962;27;20122;-67
2022/06/29 05:53:16;;;;;;;1.45;0.30;;;20.70;59.50;;;;;;5112737;28;20054;-67
2022/06/29 05:55:43;;;;;;;1.27;0.30;;;20.80;59.50;;;;;;5107793;28;20130;-67
2022/06/29 05:58:11;;;;;;;0.60;0.30;;;20.80;59.50;;;;;;5110186;28;20039;-67
2022/06/29 06:00:37;;;;;;;3.03;0.38;;;20.80;59.40;;;;;;5110439;28;20104;-67
2022/06/29 06:03:02;;;;;;;1.55;0.30;;;20.80;59.30;;;;;;5110071;28;20035;-67
2022/06/29 06:05:28;;;;;;;0.55;0.25;;;20.80;59.30;;;;;;5110268;28;20044;-67
2022/06/29 06:07:54;;;;;;;2.05;0.30;;;20.80;59.20;;;;;;5108389;28;20077;-66
2022/06/29 06:10:19;;;;;;;2.92;0.40;;;20.90;59.30;;;;;;5104687;28;20043;-68
2022/06/29 06:12:45;;;;;;;1.10;0.30;;;20.90;59.30;;;;;;5104420;28;20093;-69
2022/06/29 06:15:10;;;;;;;1.30;0.50;;;20.90;59.40;;;;;;5100859;27;20040;-68
2022/06/29 06:17:36;;;;;;;3.22;0.50;;;20.90;59.80;;;;;;5074503;27;20529;-68
2022/06/29 06:20:03;;;;;;;2.45;0.40;;;20.90;60.00;;;;;;5084617;28;20049;-67
2022/06/29 06:22:28;;;;;;;4.43;0.50;;;21.00;60.10;;;;;;5080459;27;20031;-67
2022/06/29 06:24:54;;;;;;;2.58;0.50;;;21.00;60.00;;;;;;5085757;27;20518;-67
2022/06/29 06:27:20;;;;;;;4.10;0.40;;;21.00;60.00;;;;;;5091393;27;20047;-67
2022/06/29 06:29:49;;;;;;;2.50;0.40;;;21.00;59.90;;;;;;5089127;28;20039;-67
2022/06/29 06:32:14;;;;;;;3.63;0.55;;;21.00;59.80;;;;;;5090915;28;20143;-68
2022/06/29 06:34:40;;;;;;;1.73;0.40;;;21.10;59.80;;;;;;5091301;28;20119;-69
2022/06/29 06:37:06;;;;;;;3.78;0.43;;;21.10;59.90;;;;;;5106273;27;20449;-67
2022/06/29 06:39:31;;;;;;;6.03;0.47;;;21.10;59.90;;;;;;5094105;28;20118;-69
2022/06/29 06:42:03;;;;;;;2.33;0.63;;;21.10;60.00;;;;;;5088559;27;20472;-67
2022/06/29 06:44:29;;;;;;;4.75;0.50;;;21.10;60.10;;;;;;5095589;28;20039;-68
2022/06/29 06:46:55;;;;;;;3.55;0.43;;;21.20;60.30;;;;;;5088150;28;20089;-68
2022/06/29 06:49:23;;;;;;;4.32;0.80;;;21.20;60.40;;;;;;5092201;27;20074;-68
2022/06/29 06:51:51;;;;;;;3.10;0.40;;;21.30;60.50;;;;;;5093602;27;20129;-68
2022/06/29 06:54:16;;;;;;;3.55;0.60;;;21.30;60.60;;;;;;5088455;27;20051;-68
2022/06/29 06:56:42;;;;;;;2.17;0.43;;;21.30;60.70;;;;;;5091165;28;20067;-68
2022/06/29 06:59:08;;;;;;;5.20;0.70;;;21.40;60.80;;;;;;5089030;27;20071;-69
2022/06/29 07:01:33;;;;;;;2.25;0.47;;;21.40;60.70;;;;;;5092067;27;20059;-67
2022/06/29 07:03:59;;;;;;;3.15;0.68;;;21.40;60.80;;;;;;5093675;28;20027;-68
2022/06/29 07:06:25;;;;;;;1.60;0.57;;;21.50;60.90;;;;;;5094234;27;20506;-68
2022/06/29 07:08:51;;;;;;;3.70;0.50;;;21.50;60.60;;;;;;5089512;28;20153;-67
2022/06/29 07:11:17;;;;;;;2.45;0.65;;;21.50;60.60;;;;;;5089088;28;20135;-74
2022/06/29 07:13:42;;;;;;;4.00;0.80;;;21.60;60.70;;;;;;5084187;28;20032;-69
2022/06/29 07:16:08;;;;;;;1.90;0.70;;;21.60;60.50;;;;;;5087043;28;20101;-67
2022/06/29 07:18:34;;;;;;;7.13;1.02;;;21.60;60.30;;;;;;5104232;27;20220;-68
2022/06/29 07:21:00;;;;;;;3.00;0.82;;;21.60;60.30;;;;;;5089835;28;20108;-69
2022/06/29 07:23:28;;;;;;;3.03;0.82;;;21.70;60.30;;;;;;5090841;27;20043;-70
2022/06/29 07:25:54;;;;;;;5.05;1.00;;;21.70;60.30;;;;;;5089153;27;20079;-69
2022/06/29 07:28:21;;;;;;;5.68;1.08;;;21.70;60.30;;;;;;5087169;28;20185;-68
2022/06/29 07:30:46;;;;;;;5.47;0.90;;;21.80;60.40;;;;;;5092781;28;20189;-69
2022/06/29 07:33:12;;;;;;;7.25;0.85;;;21.80;60.40;;;;;;5086811;27;20552;-68
2022/06/29 07:35:41;;;;;;;3.67;0.73;;;21.80;60.30;;;;;;5092405;28;20050;-68
2022/06/29 07:38:10;;;;;;;8.93;0.90;;;21.90;60.40;;;;;;5092180;27;20043;-68
2022/06/29 07:40:36;;;;;;;8.70;1.38;;;22.00;60.40;;;;;;5092315;27;20657;-68
2022/06/29 07:43:01;;;;;;;3.35;0.70;;;21.90;60.30;;;;;;5107985;27;20050;-68
2022/06/29 07:45:27;;;;;;;6.60;0.90;;;21.90;60.20;;;;;;5092790;27;20131;-69
2022/06/29 07:47:53;;;;;;;7.40;0.95;;;22.00;60.30;;;;;;5089143;27;20450;-69
2022/06/29 07:50:21;;;;;;;3.50;0.80;;;22.00;60.30;;;;;;5106597;27;20040;-68
2022/06/29 07:52:47;;;;;;;5.25;1.10;;;22.00;60.20;;;;;;5091334;28;20600;-67
2022/06/29 07:55:13;;;;;;;2.65;1.05;;;22.00;60.10;;;;;;5089057;28;20048;-68
2022/06/29 07:57:38;;;;;;;5.13;0.73;;;22.10;60.10;;;;;;5091882;28;20039;-68
2022/06/29 08:00:05;;;;;;;3.45;0.77;;;22.10;60.00;;;;;;5090760;28;20040;-69
2022/06/29 08:02:31;;;;;;;2.50;0.60;;;22.20;60.00;;;;;;5092547;27;20040;-70
2022/06/29 08:04:58;;;;;;;3.13;0.95;;;22.20;59.80;;;;;;5090660;27;20545;-68
2022/06/29 08:07:24;;;;;;;5.20;0.90;;;22.20;59.90;;;;;;5093499;28;20071;-66
2022/06/29 08:09:49;;;;;;;5.55;1.73;;;22.20;59.90;;;;;;5089220;27;20075;-67
2022/06/29 08:12:16;;;;;;;4.28;0.90;;;22.30;59.90;;;;;;5089748;27;20396;-67
2022/06/29 08:14:41;;;;;;;3.45;0.93;;;22.30;59.70;;;;;;5089323;27;20706;-69
2022/06/29 08:17:07;;;;;;;3.92;1.05;;;22.30;59.70;;;;;;5089915;28;20031;-67
2022/06/29 08:19:32;;;;;;;3.97;0.90;;;22.30;59.60;;;;;;5087496;28;20436;-67
2022/06/29 08:21:58;;;;;;;7.95;1.15;;;22.40;59.40;;;;;;5093848;28;20093;-67
2022/06/29 08:24:24;;;;;;;8.00;1.48;;;22.40;59.00;;;;;;5088166;27;20036;-67
2022/06/29 08:26:50;;;;;;;4.60;0.60;;;22.40;58.60;;;;;;5091487;28;20080;-67
2022/06/29 08:29:16;;;;;;;2.53;0.32;;;22.50;58.40;;;;;;5091668;27;20173;-67
2022/06/29 08:31:42;;;;;;;3.55;0.65;;;22.60;58.10;;;;;;5104566;27;20149;-67
2022/06/29 08:34:09;;;;;;;6.70;0.63;;;22.70;57.60;;;;;;5089650;27;20028;-68
2022/06/29 08:36:34;;;;;;;5.32;0.57;;;22.80;57.40;;;;;;5109962;27;20036;-68
2022/06/29 08:39:01;;;;;;;2.05;0.63;;;22.90;57.30;;;;;;5091374;28;20077;-68
2022/06/29 08:41:29;;;;;;;3.38;0.60;;;23.00;57.20;;;;;;5091358;28;20396;-67
2022/06/29 08:43:59;;;;;;;3.85;0.40;;;22.90;56.90;;;;;;5095650;28;20048;-67
2022/06/29 08:46:24;;;;;;;2.97;0.53;;;23.00;56.70;;;;;;5088252;28;20054;-67
2022/06/29 08:48:50;;;;;;;1.63;0.20;;;23.10;56.70;;;;;;5092260;28;20289;-67
2022/06/29 08:51:18;;;;;;;2.63;0.40;;;23.10;56.50;;;;;;5088084;28;20101;-67
2022/06/29 08:53:45;;;;;;;3.47;0.30;;;23.20;56.30;;;;;;5082974;28;20472;-68
2022/06/29 08:56:12;;;;;;;6.50;0.50;;;23.40;56.20;;;;;;5090053;28;20052;-67
2022/06/29 08:58:41;;;;;;;4.72;0.60;;;23.50;56.00;;;;;;5085586;28;20049;-68
2022/06/29 09:01:06;;;;;;;6.28;1.45;;;23.50;55.80;;;;;;5081278;28;20040;-69
2022/06/29 09:03:32;;;;;;;1.20;0.60;;;23.60;55.60;;;;;;5102171;28;20032;-70
2022/06/29 09:06:01;;;;;;;3.67;0.40;;;23.80;55.30;;;;;;5099934;28;20104;-67
2022/06/29 09:08:26;;;;;;;1.48;0.40;;;23.90;55.10;;;;;;5087128;28;20052;-70
2022/06/29 09:10:52;;;;;;;2.30;0.50;;;24.00;55.10;;;;;;5089096;28;20059;-69
2022/06/29 09:13:22;;;;;;;2.35;0.70;;;24.10;54.70;;;;;;5092332;28;20063;-70
2022/06/29 09:15:56;;;;;;;4.20;0.40;;;24.10;54.60;;;;;;5090865;28;20040;-69
2022/06/29 09:18:27;;;;;;;2.38;0.43;;;24.10;54.70;;;;;;5094464;28;20113;-70
2022/06/29 09:20:55;;;;;;;1.88;0.40;;;24.20;54.60;;;;;;5092015;27;20039;-72
2022/06/29 09:23:25;;;;;;;3.83;0.70;;;24.30;54.40;;;;;;5093896;27;20035;-73
2022/06/29 09:25:51;;;;;;;2.33;0.60;;;24.40;54.20;;;;;;5084958;28;20363;-69
2022/06/29 09:28:19;;;;;;;2.20;1.13;;;24.50;54.10;;;;;;5087959;27;20082;-68
2022/06/29 09:30:45;;;;;;;5.25;0.55;;;24.70;53.80;;;;;;5093616;28;20047;-67
2022/06/29 09:33:11;;;;;;;3.72;0.88;;;24.90;53.50;;;;;;5102808;27;20473;-70
2022/06/29 09:35:38;;;;;;;8.55;1.33;;;24.90;53.30;;;;;;5092326;28;20044;-67
2022/06/29 09:38:24;;;;;;;7.47;0.52;;;25.00;53.10;;;;;;5095705;28;20038;-68
2022/06/29 09:41:11;;;;;;;3.25;0.77;;;25.10;53.00;;;;;;5095668;28;20036;-70
2022/06/29 09:43:39;;;;;;;2.65;0.30;;;25.00;53.00;;;;;;5092379;28;20040;-70
2022/06/29 09:46:06;;;;;;;6.60;0.73;;;25.00;53.70;;;;;;5095454;28;20070;-69
2022/06/29 09:48:34;;;;;;;4.03;0.50;;;25.10;52.90;;;;;;5096087;28;20047;-69
2022/06/29 09:51:00;;;;;;;4.60;0.60;;;25.10;52.80;;;;;;5089721;27;20058;-70
2022/06/29 09:53:42;;;;;;;2.60;0.40;;;25.20;52.80;;;;;;5088608;27;20099;-69
2022/06/29 09:56:11;;;;;;;5.35;0.60;;;25.20;53.00;;;;;;5093383;28;20051;-69
2022/06/29 10:04:03;;;;;;;3.65;0.60;;;25.30;53.10;;;;;;5085898;28;20039;-68
2022/06/29 10:06:29;;;;;;;4.97;0.60;;;25.30;53.10;;;;;;5089051;28;20047;-70
2022/06/29 10:08:56;;;;;;;3.08;1.23;;;25.30;53.10;;;;;;5086485;28;20771;-69
2022/06/29 10:17:32;;;;;;;2.95;0.60;;;25.30;53.20;;;;;;5084614;27;20481;-69
2022/06/29 10:20:28;;;;;;;2.85;0.98;;;25.30;53.50;;;;;;5070446;28;20056;-72
2022/06/29 10:22:57;;;;;;;2.25;0.90;;;25.30;53.60;;;;;;5071596;28;20056;-70
2022/06/29 10:25:27;;;;;;;5.15;1.15;;;25.20;53.50;;;;;;5067150;28;20485;-72
2022/06/29 10:28:16;;;;;;;6.93;1.20;;;25.20;53.50;;;;;;5068654;28;20063;-69
2022/06/29 10:30:43;;;;;;;5.57;0.50;;;25.30;53.70;;;;;;5069642;28;20040;-66
2022/06/29 10:36:11;;;;;;;2.63;0.50;;;25.30;53.70;;;;;;5117382;27;20349;-67
2022/06/29 10:47:33;;;;;;;7.07;0.75;;;25.40;53.40;;;;;;5122266;27;20739;-68
2022/06/29 10:52:55;;;;;;;4.50;0.77;;;25.50;53.30;;;;;;5078204;27;20413;-66
2022/06/29 10:55:22;;;;;;;3.90;0.47;;;25.40;53.30;;;;;;5078563;28;20417;-69
2022/06/29 10:57:48;;;;;;;1.50;0.50;;;25.40;53.20;;;;;;5081219;28;20044;-69
2022/06/29 11:00:20;;;;;;;11.80;0.80;;;25.40;53.20;;;;;;5081639;28;20044;-68
2022/06/29 11:02:47;;;;;;;3.38;0.60;;;25.30;53.30;;;;;;5083766;28;20189;-68
2022/06/29 11:05:12;;;;;;;2.10;0.52;;;25.30;53.40;;;;;;5086819;28;20119;-71
2022/06/29 11:13:22;;;;;;;2.65;0.50;;;25.20;53.90;;;;;;5094330;28;20705;-68
2022/06/29 11:15:50;;;;;;;1.75;0.73;;;25.20;53.90;;;;;;5083635;28;20066;-69
2022/06/29 11:18:18;;;;;;;3.90;1.08;;;25.20;54.00;;;;;;5084522;28;20056;-71
2022/06/29 11:20:48;;;;;;;5.07;0.85;;;25.10;54.10;;;;;;5084658;28;20044;-70
2022/06/29 11:23:19;;;;;;;3.78;0.77;;;25.10;54.30;;;;;;5085435;28;20036;-70
2022/06/29 11:25:47;;;;;;;2.67;1.35;;;25.10;54.40;;;;;;5084394;28;20040;-69
2022/06/29 11:28:16;;;;;;;5.65;1.15;;;25.10;54.60;;;;;;5088003;28;20032;-69
2022/06/29 11:30:42;;;;;;;6.03;0.97;;;25.20;54.60;;;;;;5083587;28;20044;-69
2022/06/29 11:33:11;;;;;;;2.40;0.90;;;25.20;54.40;;;;;;5084543;28;20712;-72
2022/06/29 11:35:39;;;;;;;6.32;1.70;;;25.20;54.30;;;;;;5081693;28;20042;-69
2022/06/29 11:38:07;;;;;;;2.30;0.80;;;25.20;54.00;;;;;;5083993;28;20479;-70
2022/06/29 11:40:36;;;;;;;1.00;0.60;;;25.20;53.80;;;;;;5084256;28;20036;-69
2022/06/29 11:43:11;;;;;;;7.63;0.70;;;25.20;53.40;;;;;;5104903;28;20558;-70
2022/06/29 11:48:26;;;;;;;2.97;0.80;;;25.30;53.60;;;;;;5085700;27;20416;-71
2022/06/29 11:50:54;;;;;;;2.30;0.70;;;25.20;53.60;;;;;;5084054;28;20044;-70
2022/06/29 11:56:20;;;;;;;2.88;0.60;;;25.20;53.60;;;;;;5104316;27;20683;-69
2022/06/29 11:58:50;;;;;;;11.85;1.40;;;25.20;53.60;;;;;;5093380;28;20080;-69
2022/06/29 12:01:18;;;;;;;12.53;1.20;;;25.20;53.80;;;;;;5096427;28;20126;-67
2022/06/29 12:03:53;;;;;;;10.18;1.20;;;25.20;53.90;;;;;;5093228;28;20051;-66
2022/06/29 12:06:21;;;;;;;7.00;1.67;;;25.20;54.20;;;;;;5091451;28;20040;-66
2022/06/29 12:08:47;;;;;;;2.08;0.75;;;25.20;54.20;;;;;;5085259;28;20094;-66
2022/06/29 12:11:13;;;;;;;2.90;0.77;;;25.20;54.20;;;;;;5090481;28;20060;-66
2022/06/29 12:13:39;;;;;;;4.53;0.73;;;25.30;54.00;;;;;;5091058;28;20544;-67
2022/06/29 12:16:05;;;;;;;2.17;0.63;;;25.20;53.80;;;;;;5109906;28;20036;-68
2022/06/29 12:18:31;;;;;;;2.70;0.98;;;25.20;53.80;;;;;;5087803;28;20078;-66
2022/06/29 12:20:56;;;;;;;4.20;1.35;;;25.30;54.00;;;;;;5086848;28;20029;-67
2022/06/29 12:23:22;;;;;;;1.77;0.82;;;25.30;54.00;;;;;;5084161;28;20033;-66
2022/06/29 12:25:48;;;;;;;1.45;0.68;;;25.30;54.10;;;;;;5102208;28;20040;-67
2022/06/29 12:28:14;;;;;;;4.40;0.70;;;25.40;54.10;;;;;;5085316;28;20427;-68
2022/06/29 12:30:40;;;;;;;4.28;0.90;;;25.40;53.90;;;;;;5085470;28;20498;-68
2022/06/29 12:33:09;;;;;;;3.88;0.90;;;25.50;53.90;;;;;;5084424;28;20439;-68
2022/06/29 12:35:35;;;;;;;4.78;0.70;;;25.50;54.00;;;;;;5082098;28;20068;-68
2022/06/29 12:38:01;;;;;;;1.17;0.70;;;25.50;53.90;;;;;;5083581;28;20480;-67
2022/06/29 12:40:29;;;;;;;4.47;1.02;;;25.50;53.90;;;;;;5084431;28;20024;-69
2022/06/29 12:42:55;;;;;;;2.80;0.70;;;25.50;53.80;;;;;;5082072;28;20499;-69
2022/06/29 12:45:21;;;;;;;2.03;0.77;;;25.50;53.70;;;;;;5089794;28;20035;-71
2022/06/29 12:47:46;;;;;;;2.70;0.93;;;25.60;53.80;;;;;;5096976;28;20566;-70
2022/06/29 12:50:12;;;;;;;3.53;1.38;;;25.60;53.90;;;;;;5085748;28;20040;-70
2022/06/29 12:52:40;;;;;;;2.10;0.82;;;25.60;53.90;;;;;;5083450;28;20403;-70
2022/06/29 12:55:08;;;;;;;1.70;0.88;;;25.60;53.90;;;;;;5082862;28;20060;-68
2022/06/29 12:57:34;;;;;;;3.00;0.60;;;25.60;54.00;;;;;;5081978;28;20531;-71
2022/06/29 12:59:59;;;;;;;3.92;0.82;;;25.60;53.90;;;;;;5083463;28;20040;-68
2022/06/29 13:02:25;;;;;;;5.13;1.20;;;25.70;53.80;;;;;;5086372;28;20056;-70
2022/06/29 13:04:51;;;;;;;7.97;1.13;;;25.60;53.80;;;;;;5085109;28;20096;-69
2022/06/29 13:07:17;;;;;;;4.18;0.88;;;25.60;53.90;;;;;;5074874;28;20139;-68
2022/06/29 13:09:42;;;;;;;4.63;0.80;;;25.60;54.00;;;;;;5071183;28;20512;-68
2022/06/29 13:12:08;;;;;;;4.85;1.05;;;25.60;54.00;;;;;;5069227;28;20107;-68
2022/06/29 13:14:34;;;;;;;3.47;0.70;;;25.60;54.10;;;;;;5070876;28;20044;-67
2022/06/29 13:16:59;;;;;;;3.83;0.80;;;25.60;54.10;;;;;;5070091;28;20036;-66
2022/06/29 13:19:25;;;;;;;2.00;1.23;;;25.60;54.10;;;;;;5071685;28;20040;-66
2022/06/29 13:21:51;;;;;;;2.53;0.85;;;25.60;54.10;;;;;;5070809;28;20547;-67
2022/06/29 13:24:16;;;;;;;4.53;0.85;;;25.70;54.00;;;;;;5072423;28;20047;-67
2022/06/29 13:26:42;;;;;;;5.93;1.33;;;25.70;53.90;;;;;;5070207;28;21559;-69
2022/06/29 13:29:07;;;;;;;3.05;0.90;;;25.70;53.90;;;;;;5069462;28;20044;-69
2022/06/29 13:31:36;;;;;;;2.83;0.98;;;25.70;53.90;;;;;;5070585;28;20032;-69